sensor_id;sensor_type;location;lat;lon;timestamp;P1;durP1;ratioP1;P2;durP2;ratioP2
9156;SDS011;4613;48.392;9.998;2023-03-14T00:02:12;0.33;;;0.30;;
9156;SDS011;4613;48.392;9.998;2023-03-14T00:05:03;0.57;;;0.50;;
9156;SDS011;4613;48.392;9.998;2023-03-14T00:07:55;0.57;;;0.57;;
9156;SDS011;4613;48.392;9.998;2023-03-14T00:10:44;0.40;;;0.40;;
9156;SDS011;4613;48.392;9.998;2023-03-14T00:13:33;0.97;;;0.50;;
9156;SDS011;4613;48.392;9.998;2023-03-14T00:16:23;0.40;;;0.40;;
9156;SDS011;4613;48.392;9.998;2023-03-14T00:19:13;0.20;;;0.20;;
9156;SDS011;4613;48.392;9.998;2023-03-14T00:22:02;2.10;;;0.40;;
9156;SDS011;4613;48.392;9.998;2023-03-14T00:24:51;0.40;;;0.40;;
9156;SDS011;4613;48.392;9.998;2023-03-14T00:27:40;0.40;;;0.40;;
9156;SDS011;4613;48.392;9.998;2023-03-14T00:30:30;0.47;;;0.40;;
9156;SDS011;4613;48.392;9.998;2023-03-14T00:33:19;0.40;;;0.40;;
9156;SDS011;4613;48.392;9.998;2023-03-14T00:36:10;0.53;;;0.53;;
9156;SDS011;4613;48.392;9.998;2023-03-14T00:39:03;0.20;;;0.20;;
9156;SDS011;4613;48.392;9.998;2023-03-14T00:41:54;0.30;;;0.30;;
9156;SDS011;4613;48.392;9.998;2023-03-14T00:44:44;0.23;;;0.23;;
9156;SDS011;4613;48.392;9.998;2023-03-14T00:47:33;0.20;;;0.20;;
9156;SDS011;4613;48.392;9.998;2023-03-14T00:50:23;0.43;;;0.40;;
9156;SDS011;4613;48.392;9.998;2023-03-14T00:53:12;2.13;;;0.40;;
9156;SDS011;4613;48.392;9.998;2023-03-14T00:56:05;0.30;;;0.30;;
9156;SDS011;4613;48.392;9.998;2023-03-14T00:58:57;0.23;;;0.23;;
9156;SDS011;4613;48.392;9.998;2023-03-14T01:01:46;0.30;;;0.30;;
9156;SDS011;4613;48.392;9.998;2023-03-14T01:04:35;1.50;;;0.50;;
9156;SDS011;4613;48.392;9.998;2023-03-14T01:07:26;0.30;;;0.30;;
9156;SDS011;4613;48.392;9.998;2023-03-14T01:10:16;0.20;;;0.20;;
9156;SDS011;4613;48.392;9.998;2023-03-14T01:13:05;0.20;;;0.20;;
9156;SDS011;4613;48.392;9.998;2023-03-14T01:15:55;0.47;;;0.37;;
9156;SDS011;4613;48.392;9.998;2023-03-14T01:18:49;0.23;;;0.23;;
9156;SDS011;4613;48.392;9.998;2023-03-14T01:21:39;0.30;;;0.30;;
9156;SDS011;4613;48.392;9.998;2023-03-14T01:24:28;0.20;;;0.20;;
9156;SDS011;4613;48.392;9.998;2023-03-14T01:27:18;0.33;;;0.30;;
9156;SDS011;4613;48.392;9.998;2023-03-14T01:30:07;0.30;;;0.30;;
9156;SDS011;4613;48.392;9.998;2023-03-14T01:32:58;1.03;;;0.40;;
9156;SDS011;4613;48.392;9.998;2023-03-14T01:35:49;0.40;;;0.40;;
9156;SDS011;4613;48.392;9.998;2023-03-14T01:38:39;0.40;;;0.40;;
9156;SDS011;4613;48.392;9.998;2023-03-14T01:41:31;0.30;;;0.30;;
9156;SDS011;4613;48.392;9.998;2023-03-14T01:44:21;0.40;;;0.33;;
9156;SDS011;4613;48.392;9.998;2023-03-14T01:47:12;0.20;;;0.20;;
9156;SDS011;4613;48.392;9.998;2023-03-14T01:50:03;0.50;;;0.50;;
9156;SDS011;4613;48.392;9.998;2023-03-14T01:52:57;0.33;;;0.33;;
9156;SDS011;4613;48.392;9.998;2023-03-14T01:55:49;0.30;;;0.30;;
9156;SDS011;4613;48.392;9.998;2023-03-14T01:58:41;0.30;;;0.30;;
9156;SDS011;4613;48.392;9.998;2023-03-14T02:01:33;0.30;;;0.30;;
9156;SDS011;4613;48.392;9.998;2023-03-14T02:04:25;0.50;;;0.50;;
9156;SDS011;4613;48.392;9.998;2023-03-14T02:07:41;0.50;;;0.50;;
9156;SDS011;4613;48.392;9.998;2023-03-14T02:10:41;0.30;;;0.30;;
9156;SDS011;4613;48.392;9.998;2023-03-14T02:13:33;0.30;;;0.30;;
9156;SDS011;4613;48.392;9.998;2023-03-14T02:16:39;0.50;;;0.50;;
9156;SDS011;4613;48.392;9.998;2023-03-14T02:23:04;0.40;;;0.40;;
9156;SDS011;4613;48.392;9.998;2023-03-14T02:25:57;0.30;;;0.30;;
9156;SDS011;4613;48.392;9.998;2023-03-14T02:28:59;0.50;;;0.30;;
9156;SDS011;4613;48.392;9.998;2023-03-14T02:31:49;0.20;;;0.20;;
9156;SDS011;4613;48.392;9.998;2023-03-14T02:34:39;0.53;;;0.30;;
9156;SDS011;4613;48.392;9.998;2023-03-14T02:37:35;0.23;;;0.23;;
9156;SDS011;4613;48.392;9.998;2023-03-14T02:40:35;0.40;;;0.40;;
9156;SDS011;4613;48.392;9.998;2023-03-14T02:43:24;0.40;;;0.40;;
9156;SDS011;4613;48.392;9.998;2023-03-14T02:46:20;0.30;;;0.30;;
9156;SDS011;4613;48.392;9.998;2023-03-14T02:49:11;0.30;;;0.30;;
9156;SDS011;4613;48.392;9.998;2023-03-14T02:52:02;0.40;;;0.40;;
9156;SDS011;4613;48.392;9.998;2023-03-14T02:54:53;0.40;;;0.40;;
9156;SDS011;4613;48.392;9.998;2023-03-14T02:57:43;0.30;;;0.30;;
9156;SDS011;4613;48.392;9.998;2023-03-14T03:00:33;0.40;;;0.40;;
9156;SDS011;4613;48.392;9.998;2023-03-14T03:03:24;0.40;;;0.40;;
9156;SDS011;4613;48.392;9.998;2023-03-14T03:06:14;0.20;;;0.20;;
9156;SDS011;4613;48.392;9.998;2023-03-14T03:09:04;0.20;;;0.20;;
9156;SDS011;4613;48.392;9.998;2023-03-14T03:11:54;0.30;;;0.30;;
9156;SDS011;4613;48.392;9.998;2023-03-14T03:14:46;0.43;;;0.30;;
9156;SDS011;4613;48.392;9.998;2023-03-14T03:17:35;0.30;;;0.30;;
9156;SDS011;4613;48.392;9.998;2023-03-14T03:20:25;0.30;;;0.30;;
9156;SDS011;4613;48.392;9.998;2023-03-14T03:23:14;0.40;;;0.30;;
9156;SDS011;4613;48.392;9.998;2023-03-14T03:26:09;0.30;;;0.30;;
9156;SDS011;4613;48.392;9.998;2023-03-14T03:29:00;0.30;;;0.30;;
9156;SDS011;4613;48.392;9.998;2023-03-14T03:31:49;0.20;;;0.20;;
9156;SDS011;4613;48.392;9.998;2023-03-14T03:34:39;0.20;;;0.20;;
9156;SDS011;4613;48.392;9.998;2023-03-14T03:37:30;0.30;;;0.30;;
9156;SDS011;4613;48.392;9.998;2023-03-14T03:40:20;0.37;;;0.37;;
9156;SDS011;4613;48.392;9.998;2023-03-14T03:43:09;0.27;;;0.27;;
9156;SDS011;4613;48.392;9.998;2023-03-14T03:46:05;0.40;;;0.40;;
9156;SDS011;4613;48.392;9.998;2023-03-14T03:48:56;0.30;;;0.30;;
9156;SDS011;4613;48.392;9.998;2023-03-14T03:51:48;0.30;;;0.30;;
9156;SDS011;4613;48.392;9.998;2023-03-14T03:54:37;0.20;;;0.20;;
9156;SDS011;4613;48.392;9.998;2023-03-14T03:57:27;0.87;;;0.50;;
9156;SDS011;4613;48.392;9.998;2023-03-14T04:00:16;0.30;;;0.30;;
9156;SDS011;4613;48.392;9.998;2023-03-14T04:03:06;0.37;;;0.37;;
9156;SDS011;4613;48.392;9.998;2023-03-14T04:08:56;0.40;;;0.40;;
9156;SDS011;4613;48.392;9.998;2023-03-14T04:12:08;0.50;;;0.50;;
9156;SDS011;4613;48.392;9.998;2023-03-14T04:15:16;0.70;;;0.70;;
9156;SDS011;4613;48.392;9.998;2023-03-14T04:18:10;0.40;;;0.40;;
9156;SDS011;4613;48.392;9.998;2023-03-14T04:20:59;0.47;;;0.47;;
9156;SDS011;4613;48.392;9.998;2023-03-14T04:23:57;0.50;;;0.50;;
9156;SDS011;4613;48.392;9.998;2023-03-14T04:26:49;0.40;;;0.40;;
9156;SDS011;4613;48.392;9.998;2023-03-14T04:29:38;0.20;;;0.20;;
9156;SDS011;4613;48.392;9.998;2023-03-14T04:32:28;0.30;;;0.30;;
9156;SDS011;4613;48.392;9.998;2023-03-14T04:35:20;0.30;;;0.30;;
9156;SDS011;4613;48.392;9.998;2023-03-14T04:38:15;0.30;;;0.30;;
9156;SDS011;4613;48.392;9.998;2023-03-14T04:41:07;0.30;;;0.30;;
9156;SDS011;4613;48.392;9.998;2023-03-14T04:43:58;0.37;;;0.37;;
9156;SDS011;4613;48.392;9.998;2023-03-14T04:46:48;0.30;;;0.30;;
9156;SDS011;4613;48.392;9.998;2023-03-14T04:49:39;0.33;;;0.30;;
9156;SDS011;4613;48.392;9.998;2023-03-14T04:52:30;0.37;;;0.37;;
9156;SDS011;4613;48.392;9.998;2023-03-14T04:55:21;0.30;;;0.30;;
9156;SDS011;4613;48.392;9.998;2023-03-14T04:58:10;0.20;;;0.20;;
9156;SDS011;4613;48.392;9.998;2023-03-14T05:01:03;0.40;;;0.40;;
9156;SDS011;4613;48.392;9.998;2023-03-14T05:04:11;0.30;;;0.30;;
9156;SDS011;4613;48.392;9.998;2023-03-14T05:07:33;0.40;;;0.40;;
9156;SDS011;4613;48.392;9.998;2023-03-14T05:10:51;0.30;;;0.30;;
9156;SDS011;4613;48.392;9.998;2023-03-14T05:14:13;0.53;;;0.30;;
9156;SDS011;4613;48.392;9.998;2023-03-14T05:17:03;1.60;;;0.43;;
9156;SDS011;4613;48.392;9.998;2023-03-14T05:20:10;0.33;;;0.33;;
9156;SDS011;4613;48.392;9.998;2023-03-14T05:23:26;0.40;;;0.40;;
9156;SDS011;4613;48.392;9.998;2023-03-14T05:26:44;0.40;;;0.40;;
9156;SDS011;4613;48.392;9.998;2023-03-14T05:29:52;0.53;;;0.53;;
9156;SDS011;4613;48.392;9.998;2023-03-14T05:33:07;1.10;;;0.80;;
9156;SDS011;4613;48.392;9.998;2023-03-14T05:36:17;0.40;;;0.40;;
9156;SDS011;4613;48.392;9.998;2023-03-14T05:39:24;0.30;;;0.30;;
9156;SDS011;4613;48.392;9.998;2023-03-14T05:42:32;0.50;;;0.50;;
9156;SDS011;4613;48.392;9.998;2023-03-14T05:45:54;0.40;;;0.40;;
9156;SDS011;4613;48.392;9.998;2023-03-14T05:49:00;0.47;;;0.47;;
9156;SDS011;4613;48.392;9.998;2023-03-14T05:52:05;0.43;;;0.43;;
9156;SDS011;4613;48.392;9.998;2023-03-14T05:55:10;0.40;;;0.40;;
9156;SDS011;4613;48.392;9.998;2023-03-14T05:58:02;0.43;;;0.33;;
9156;SDS011;4613;48.392;9.998;2023-03-14T06:01:05;0.50;;;0.50;;
9156;SDS011;4613;48.392;9.998;2023-03-14T06:04:07;1.03;;;0.40;;
9156;SDS011;4613;48.392;9.998;2023-03-14T06:06:57;0.30;;;0.30;;
9156;SDS011;4613;48.392;9.998;2023-03-14T06:09:47;0.30;;;0.30;;
9156;SDS011;4613;48.392;9.998;2023-03-14T06:12:39;1.03;;;0.93;;
9156;SDS011;4613;48.392;9.998;2023-03-14T06:15:29;1.03;;;0.60;;
9156;SDS011;4613;48.392;9.998;2023-03-14T06:18:19;0.37;;;0.37;;
9156;SDS011;4613;48.392;9.998;2023-03-14T06:21:08;0.40;;;0.40;;
9156;SDS011;4613;48.392;9.998;2023-03-14T06:23:59;0.37;;;0.37;;
9156;SDS011;4613;48.392;9.998;2023-03-14T06:26:51;0.47;;;0.47;;
9156;SDS011;4613;48.392;9.998;2023-03-14T06:29:41;0.60;;;0.60;;
9156;SDS011;4613;48.392;9.998;2023-03-14T06:32:30;1.57;;;0.60;;
9156;SDS011;4613;48.392;9.998;2023-03-14T06:35:24;0.43;;;0.43;;
9156;SDS011;4613;48.392;9.998;2023-03-14T06:38:19;0.40;;;0.40;;
9156;SDS011;4613;48.392;9.998;2023-03-14T06:41:10;0.43;;;0.43;;
9156;SDS011;4613;48.392;9.998;2023-03-14T06:44:02;0.50;;;0.50;;
9156;SDS011;4613;48.392;9.998;2023-03-14T06:46:54;0.50;;;0.50;;
9156;SDS011;4613;48.392;9.998;2023-03-14T06:49:44;0.50;;;0.50;;
9156;SDS011;4613;48.392;9.998;2023-03-14T06:52:36;1.03;;;0.40;;
9156;SDS011;4613;48.392;9.998;2023-03-14T06:55:26;0.30;;;0.30;;
9156;SDS011;4613;48.392;9.998;2023-03-14T06:58:16;0.77;;;0.77;;
9156;SDS011;4613;48.392;9.998;2023-03-14T07:01:17;1.00;;;0.80;;
9156;SDS011;4613;48.392;9.998;2023-03-14T07:04:14;0.50;;;0.50;;
9156;SDS011;4613;48.392;9.998;2023-03-14T07:07:07;0.40;;;0.40;;
9156;SDS011;4613;48.392;9.998;2023-03-14T07:09:57;0.60;;;0.60;;
9156;SDS011;4613;48.392;9.998;2023-03-14T07:12:47;0.50;;;0.50;;
9156;SDS011;4613;48.392;9.998;2023-03-14T07:15:36;0.90;;;0.70;;
9156;SDS011;4613;48.392;9.998;2023-03-14T07:18:32;0.43;;;0.43;;
9156;SDS011;4613;48.392;9.998;2023-03-14T07:21:21;0.37;;;0.37;;
9156;SDS011;4613;48.392;9.998;2023-03-14T07:24:11;0.50;;;0.50;;
9156;SDS011;4613;48.392;9.998;2023-03-14T07:27:01;0.50;;;0.50;;
9156;SDS011;4613;48.392;9.998;2023-03-14T07:29:52;0.60;;;0.60;;
9156;SDS011;4613;48.392;9.998;2023-03-14T07:32:41;0.67;;;0.60;;
9156;SDS011;4613;48.392;9.998;2023-03-14T07:35:31;0.60;;;0.60;;
9156;SDS011;4613;48.392;9.998;2023-03-14T07:38:21;0.60;;;0.60;;
9156;SDS011;4613;48.392;9.998;2023-03-14T07:41:28;0.57;;;0.57;;
9156;SDS011;4613;48.392;9.998;2023-03-14T07:44:41;3.67;;;0.63;;
9156;SDS011;4613;48.392;9.998;2023-03-14T07:47:30;0.73;;;0.60;;
9156;SDS011;4613;48.392;9.998;2023-03-14T07:50:19;0.60;;;0.60;;
9156;SDS011;4613;48.392;9.998;2023-03-14T07:53:09;0.50;;;0.50;;
9156;SDS011;4613;48.392;9.998;2023-03-14T07:55:58;0.50;;;0.50;;
9156;SDS011;4613;48.392;9.998;2023-03-14T07:58:48;0.43;;;0.43;;
9156;SDS011;4613;48.392;9.998;2023-03-14T08:01:37;0.47;;;0.47;;
9156;SDS011;4613;48.392;9.998;2023-03-14T08:04:26;0.40;;;0.40;;
9156;SDS011;4613;48.392;9.998;2023-03-14T08:07:15;0.53;;;0.53;;
9156;SDS011;4613;48.392;9.998;2023-03-14T08:10:05;0.40;;;0.40;;
9156;SDS011;4613;48.392;9.998;2023-03-14T08:12:55;0.50;;;0.50;;
9156;SDS011;4613;48.392;9.998;2023-03-14T08:15:47;0.40;;;0.40;;
9156;SDS011;4613;48.392;9.998;2023-03-14T08:18:37;0.43;;;0.43;;
9156;SDS011;4613;48.392;9.998;2023-03-14T08:21:26;0.70;;;0.50;;
9156;SDS011;4613;48.392;9.998;2023-03-14T08:24:16;0.50;;;0.50;;
9156;SDS011;4613;48.392;9.998;2023-03-14T08:27:06;0.93;;;0.60;;
9156;SDS011;4613;48.392;9.998;2023-03-14T08:29:55;0.43;;;0.43;;
9156;SDS011;4613;48.392;9.998;2023-03-14T08:32:45;0.60;;;0.60;;
9156;SDS011;4613;48.392;9.998;2023-03-14T08:35:34;0.50;;;0.50;;
9156;SDS011;4613;48.392;9.998;2023-03-14T08:38:26;0.50;;;0.50;;
9156;SDS011;4613;48.392;9.998;2023-03-14T08:41:15;0.40;;;0.40;;
9156;SDS011;4613;48.392;9.998;2023-03-14T08:44:05;0.50;;;0.50;;
9156;SDS011;4613;48.392;9.998;2023-03-14T08:47:00;0.40;;;0.40;;
9156;SDS011;4613;48.392;9.998;2023-03-14T08:49:49;0.40;;;0.40;;
9156;SDS011;4613;48.392;9.998;2023-03-14T08:52:39;0.40;;;0.40;;
9156;SDS011;4613;48.392;9.998;2023-03-14T08:55:29;0.50;;;0.50;;
9156;SDS011;4613;48.392;9.998;2023-03-14T08:58:18;0.30;;;0.30;;
9156;SDS011;4613;48.392;9.998;2023-03-14T09:01:08;0.30;;;0.30;;
9156;SDS011;4613;48.392;9.998;2023-03-14T09:03:59;0.30;;;0.30;;
9156;SDS011;4613;48.392;9.998;2023-03-14T09:06:48;0.37;;;0.37;;
9156;SDS011;4613;48.392;9.998;2023-03-14T09:09:38;0.40;;;0.40;;
9156;SDS011;4613;48.392;9.998;2023-03-14T09:12:27;0.30;;;0.30;;
9156;SDS011;4613;48.392;9.998;2023-03-14T09:15:16;0.50;;;0.50;;
9156;SDS011;4613;48.392;9.998;2023-03-14T09:18:06;0.40;;;0.40;;
9156;SDS011;4613;48.392;9.998;2023-03-14T09:20:57;0.60;;;0.60;;
9156;SDS011;4613;48.392;9.998;2023-03-14T09:23:46;0.40;;;0.40;;
9156;SDS011;4613;48.392;9.998;2023-03-14T09:26:36;0.50;;;0.50;;
9156;SDS011;4613;48.392;9.998;2023-03-14T09:29:26;0.50;;;0.50;;
9156;SDS011;4613;48.392;9.998;2023-03-14T09:32:17;0.50;;;0.50;;
9156;SDS011;4613;48.392;9.998;2023-03-14T09:35:07;0.40;;;0.40;;
9156;SDS011;4613;48.392;9.998;2023-03-14T09:37:56;0.40;;;0.40;;
9156;SDS011;4613;48.392;9.998;2023-03-14T09:40:46;0.40;;;0.40;;
9156;SDS011;4613;48.392;9.998;2023-03-14T09:43:36;0.40;;;0.40;;
9156;SDS011;4613;48.392;9.998;2023-03-14T09:46:26;0.40;;;0.40;;
9156;SDS011;4613;48.392;9.998;2023-03-14T09:49:36;0.33;;;0.33;;
9156;SDS011;4613;48.392;9.998;2023-03-14T09:52:30;0.30;;;0.30;;
9156;SDS011;4613;48.392;9.998;2023-03-14T09:55:21;0.30;;;0.30;;
9156;SDS011;4613;48.392;9.998;2023-03-14T09:58:12;0.30;;;0.30;;
9156;SDS011;4613;48.392;9.998;2023-03-14T10:01:04;0.63;;;0.30;;
9156;SDS011;4613;48.392;9.998;2023-03-14T10:04:00;0.67;;;0.40;;
9156;SDS011;4613;48.392;9.998;2023-03-14T10:06:53;0.40;;;0.40;;
9156;SDS011;4613;48.392;9.998;2023-03-14T10:09:43;0.70;;;0.70;;
9156;SDS011;4613;48.392;9.998;2023-03-14T10:12:35;0.87;;;0.73;;
9156;SDS011;4613;48.392;9.998;2023-03-14T10:15:28;0.40;;;0.40;;
9156;SDS011;4613;48.392;9.998;2023-03-14T10:18:20;0.40;;;0.40;;
9156;SDS011;4613;48.392;9.998;2023-03-14T10:21:29;0.30;;;0.30;;
9156;SDS011;4613;48.392;9.998;2023-03-14T10:27:20;0.20;;;0.20;;
9156;SDS011;4613;48.392;9.998;2023-03-14T10:30:34;0.40;;;0.40;;
9156;SDS011;4613;48.392;9.998;2023-03-14T10:34:03;0.40;;;0.40;;
9156;SDS011;4613;48.392;9.998;2023-03-14T10:36:54;0.57;;;0.30;;
9156;SDS011;4613;48.392;9.998;2023-03-14T10:39:50;2.73;;;0.80;;
9156;SDS011;4613;48.392;9.998;2023-03-14T10:42:54;0.40;;;0.40;;
9156;SDS011;4613;48.392;9.998;2023-03-14T10:45:44;0.40;;;0.40;;
9156;SDS011;4613;48.392;9.998;2023-03-14T10:48:41;0.20;;;0.20;;
9156;SDS011;4613;48.392;9.998;2023-03-14T10:51:30;0.50;;;0.50;;
9156;SDS011;4613;48.392;9.998;2023-03-14T10:54:21;0.53;;;0.53;;
9156;SDS011;4613;48.392;9.998;2023-03-14T10:57:12;0.20;;;0.20;;
9156;SDS011;4613;48.392;9.998;2023-03-14T11:00:02;0.50;;;0.50;;
9156;SDS011;4613;48.392;9.998;2023-03-14T11:05:59;0.30;;;0.30;;
9156;SDS011;4613;48.392;9.998;2023-03-14T11:11:54;0.30;;;0.30;;
9156;SDS011;4613;48.392;9.998;2023-03-14T11:21:55;0.33;;;0.33;;
9156;SDS011;4613;48.392;9.998;2023-03-14T11:31:31;0.30;;;0.30;;
9156;SDS011;4613;48.392;9.998;2023-03-14T11:34:38;0.40;;;0.40;;
9156;SDS011;4613;48.392;9.998;2023-03-14T11:37:42;0.30;;;0.30;;
9156;SDS011;4613;48.392;9.998;2023-03-14T11:40:36;0.50;;;0.40;;
9156;SDS011;4613;48.392;9.998;2023-03-14T11:43:28;0.50;;;0.50;;
9156;SDS011;4613;48.392;9.998;2023-03-14T11:49:24;0.30;;;0.30;;
9156;SDS011;4613;48.392;9.998;2023-03-14T11:52:39;0.30;;;0.30;;
9156;SDS011;4613;48.392;9.998;2023-03-14T11:55:34;0.20;;;0.20;;
9156;SDS011;4613;48.392;9.998;2023-03-14T11:58:31;0.37;;;0.37;;
9156;SDS011;4613;48.392;9.998;2023-03-14T12:01:27;0.30;;;0.30;;
9156;SDS011;4613;48.392;9.998;2023-03-14T12:14:28;0.30;;;0.30;;
9156;SDS011;4613;48.392;9.998;2023-03-14T12:17:24;0.30;;;0.30;;
9156;SDS011;4613;48.392;9.998;2023-03-14T12:20:17;0.70;;;0.40;;
9156;SDS011;4613;48.392;9.998;2023-03-14T12:23:10;0.30;;;0.30;;
9156;SDS011;4613;48.392;9.998;2023-03-14T12:29:16;0.20;;;0.20;;
9156;SDS011;4613;48.392;9.998;2023-03-14T12:32:07;0.87;;;0.30;;
9156;SDS011;4613;48.392;9.998;2023-03-14T12:38:43;0.23;;;0.23;;
9156;SDS011;4613;48.392;9.998;2023-03-14T12:41:41;0.37;;;0.37;;
9156;SDS011;4613;48.392;9.998;2023-03-14T12:44:40;0.40;;;0.40;;
9156;SDS011;4613;48.392;9.998;2023-03-14T12:50:24;0.30;;;0.30;;
9156;SDS011;4613;48.392;9.998;2023-03-14T13:00:02;0.50;;;0.50;;
9156;SDS011;4613;48.392;9.998;2023-03-14T13:03:18;0.30;;;0.30;;
9156;SDS011;4613;48.392;9.998;2023-03-14T13:06:10;0.40;;;0.40;;
9156;SDS011;4613;48.392;9.998;2023-03-14T13:09:24;0.30;;;0.30;;
9156;SDS011;4613;48.392;9.998;2023-03-14T13:12:26;0.40;;;0.40;;
9156;SDS011;4613;48.392;9.998;2023-03-14T13:15:22;0.40;;;0.40;;
9156;SDS011;4613;48.392;9.998;2023-03-14T13:18:59;0.30;;;0.30;;
9156;SDS011;4613;48.392;9.998;2023-03-14T13:21:29;0.40;;;0.40;;
9156;SDS011;4613;48.392;9.998;2023-03-14T13:24:25;0.50;;;0.43;;
9156;SDS011;4613;48.392;9.998;2023-03-14T13:27:19;0.37;;;0.37;;
9156;SDS011;4613;48.392;9.998;2023-03-14T13:33:14;0.40;;;0.40;;
9156;SDS011;4613;48.392;9.998;2023-03-14T13:36:05;0.20;;;0.20;;
9156;SDS011;4613;48.392;9.998;2023-03-14T13:38:55;0.40;;;0.40;;
9156;SDS011;4613;48.392;9.998;2023-03-14T13:41:48;0.33;;;0.33;;
9156;SDS011;4613;48.392;9.998;2023-03-14T13:44:38;0.50;;;0.50;;
9156;SDS011;4613;48.392;9.998;2023-03-14T13:47:28;0.47;;;0.47;;
9156;SDS011;4613;48.392;9.998;2023-03-14T13:50:18;0.40;;;0.40;;
9156;SDS011;4613;48.392;9.998;2023-03-14T13:53:09;0.40;;;0.40;;
9156;SDS011;4613;48.392;9.998;2023-03-14T13:56:01;0.50;;;0.50;;
9156;SDS011;4613;48.392;9.998;2023-03-14T13:58:52;0.30;;;0.30;;
9156;SDS011;4613;48.392;9.998;2023-03-14T14:01:41;0.43;;;0.43;;
9156;SDS011;4613;48.392;9.998;2023-03-14T14:04:32;0.30;;;0.30;;
9156;SDS011;4613;48.392;9.998;2023-03-14T14:07:24;0.50;;;0.50;;
9156;SDS011;4613;48.392;9.998;2023-03-14T14:10:14;0.80;;;0.80;;
9156;SDS011;4613;48.392;9.998;2023-03-14T14:13:03;0.50;;;0.50;;
9156;SDS011;4613;48.392;9.998;2023-03-14T14:15:57;0.33;;;0.33;;
9156;SDS011;4613;48.392;9.998;2023-03-14T14:18:50;0.40;;;0.40;;
9156;SDS011;4613;48.392;9.998;2023-03-14T14:21:40;0.50;;;0.50;;
9156;SDS011;4613;48.392;9.998;2023-03-14T14:24:31;0.50;;;0.50;;
9156;SDS011;4613;48.392;9.998;2023-03-14T14:27:43;0.47;;;0.40;;
9156;SDS011;4613;48.392;9.998;2023-03-14T14:30:32;0.40;;;0.40;;
9156;SDS011;4613;48.392;9.998;2023-03-14T14:33:22;0.50;;;0.50;;
9156;SDS011;4613;48.392;9.998;2023-03-14T14:36:14;0.53;;;0.53;;
9156;SDS011;4613;48.392;9.998;2023-03-14T14:39:17;0.47;;;0.47;;
9156;SDS011;4613;48.392;9.998;2023-03-14T14:42:13;0.47;;;0.47;;
9156;SDS011;4613;48.392;9.998;2023-03-14T14:45:05;0.87;;;0.60;;
9156;SDS011;4613;48.392;9.998;2023-03-14T14:50:58;0.50;;;0.50;;
9156;SDS011;4613;48.392;9.998;2023-03-14T14:53:49;0.50;;;0.50;;
9156;SDS011;4613;48.392;9.998;2023-03-14T14:56:49;0.50;;;0.50;;
9156;SDS011;4613;48.392;9.998;2023-03-14T14:59:41;0.40;;;0.40;;
9156;SDS011;4613;48.392;9.998;2023-03-14T15:02:37;0.50;;;0.50;;
9156;SDS011;4613;48.392;9.998;2023-03-14T15:05:33;0.60;;;0.60;;
9156;SDS011;4613;48.392;9.998;2023-03-14T15:08:25;1.13;;;0.80;;
9156;SDS011;4613;48.392;9.998;2023-03-14T15:11:19;0.50;;;0.50;;
9156;SDS011;4613;48.392;9.998;2023-03-14T15:14:13;0.60;;;0.60;;
9156;SDS011;4613;48.392;9.998;2023-03-14T15:17:03;0.47;;;0.47;;
9156;SDS011;4613;48.392;9.998;2023-03-14T15:19:52;0.60;;;0.60;;
9156;SDS011;4613;48.392;9.998;2023-03-14T15:22:42;0.83;;;0.60;;
9156;SDS011;4613;48.392;9.998;2023-03-14T15:25:31;0.40;;;0.40;;
9156;SDS011;4613;48.392;9.998;2023-03-14T15:28:25;0.40;;;0.40;;
9156;SDS011;4613;48.392;9.998;2023-03-14T15:31:16;0.80;;;0.80;;
9156;SDS011;4613;48.392;9.998;2023-03-14T15:34:07;1.60;;;0.50;;
9156;SDS011;4613;48.392;9.998;2023-03-14T15:36:58;0.50;;;0.50;;
9156;SDS011;4613;48.392;9.998;2023-03-14T15:39:48;0.57;;;0.57;;
9156;SDS011;4613;48.392;9.998;2023-03-14T15:42:37;1.37;;;0.70;;
9156;SDS011;4613;48.392;9.998;2023-03-14T15:45:27;0.73;;;0.73;;
9156;SDS011;4613;48.392;9.998;2023-03-14T15:48:17;0.60;;;0.60;;
9156;SDS011;4613;48.392;9.998;2023-03-14T15:51:08;0.40;;;0.40;;
9156;SDS011;4613;48.392;9.998;2023-03-14T15:53:57;0.83;;;0.63;;
9156;SDS011;4613;48.392;9.998;2023-03-14T15:56:46;0.57;;;0.57;;
9156;SDS011;4613;48.392;9.998;2023-03-14T15:59:35;0.40;;;0.40;;
9156;SDS011;4613;48.392;9.998;2023-03-14T16:02:25;0.60;;;0.60;;
9156;SDS011;4613;48.392;9.998;2023-03-14T16:05:15;0.53;;;0.53;;
9156;SDS011;4613;48.392;9.998;2023-03-14T16:08:08;0.70;;;0.70;;
9156;SDS011;4613;48.392;9.998;2023-03-14T16:10:57;0.50;;;0.50;;
9156;SDS011;4613;48.392;9.998;2023-03-14T16:13:47;0.57;;;0.57;;
9156;SDS011;4613;48.392;9.998;2023-03-14T16:16:37;1.13;;;0.57;;
9156;SDS011;4613;48.392;9.998;2023-03-14T16:19:26;1.43;;;0.90;;
9156;SDS011;4613;48.392;9.998;2023-03-14T16:22:16;0.60;;;0.60;;
9156;SDS011;4613;48.392;9.998;2023-03-14T16:25:06;0.57;;;0.50;;
9156;SDS011;4613;48.392;9.998;2023-03-14T16:27:55;0.40;;;0.40;;
9156;SDS011;4613;48.392;9.998;2023-03-14T16:30:45;0.53;;;0.53;;
9156;SDS011;4613;48.392;9.998;2023-03-14T16:33:35;0.50;;;0.50;;
9156;SDS011;4613;48.392;9.998;2023-03-14T16:36:26;0.70;;;0.60;;
9156;SDS011;4613;48.392;9.998;2023-03-14T16:39:16;0.60;;;0.60;;
9156;SDS011;4613;48.392;9.998;2023-03-14T16:42:06;1.27;;;0.43;;
9156;SDS011;4613;48.392;9.998;2023-03-14T16:44:56;0.47;;;0.47;;
9156;SDS011;4613;48.392;9.998;2023-03-14T16:47:45;1.33;;;0.40;;
9156;SDS011;4613;48.392;9.998;2023-03-14T16:50:34;0.63;;;0.60;;
9156;SDS011;4613;48.392;9.998;2023-03-14T16:53:23;1.07;;;0.70;;
9156;SDS011;4613;48.392;9.998;2023-03-14T16:56:15;0.73;;;0.73;;
9156;SDS011;4613;48.392;9.998;2023-03-14T16:59:04;0.50;;;0.50;;
9156;SDS011;4613;48.392;9.998;2023-03-14T17:01:55;1.33;;;0.57;;
9156;SDS011;4613;48.392;9.998;2023-03-14T17:04:44;0.60;;;0.60;;
9156;SDS011;4613;48.392;9.998;2023-03-14T17:07:35;0.60;;;0.60;;
9156;SDS011;4613;48.392;9.998;2023-03-14T17:10:24;0.50;;;0.50;;
9156;SDS011;4613;48.392;9.998;2023-03-14T17:13:14;0.33;;;0.33;;
9156;SDS011;4613;48.392;9.998;2023-03-14T17:16:04;0.70;;;0.43;;
9156;SDS011;4613;48.392;9.998;2023-03-14T17:18:53;0.50;;;0.50;;
9156;SDS011;4613;48.392;9.998;2023-03-14T17:21:43;0.50;;;0.50;;
9156;SDS011;4613;48.392;9.998;2023-03-14T17:24:32;1.40;;;0.40;;
9156;SDS011;4613;48.392;9.998;2023-03-14T17:27:21;0.53;;;0.53;;
9156;SDS011;4613;48.392;9.998;2023-03-14T17:30:10;0.50;;;0.50;;
9156;SDS011;4613;48.392;9.998;2023-03-14T17:33:00;0.40;;;0.40;;
9156;SDS011;4613;48.392;9.998;2023-03-14T17:35:50;0.70;;;0.60;;
9156;SDS011;4613;48.392;9.998;2023-03-14T17:38:41;0.70;;;0.70;;
9156;SDS011;4613;48.392;9.998;2023-03-14T17:41:31;0.57;;;0.57;;
9156;SDS011;4613;48.392;9.998;2023-03-14T17:44:20;0.60;;;0.60;;
9156;SDS011;4613;48.392;9.998;2023-03-14T17:47:10;0.63;;;0.60;;
9156;SDS011;4613;48.392;9.998;2023-03-14T17:50:00;0.70;;;0.50;;
9156;SDS011;4613;48.392;9.998;2023-03-14T17:52:52;1.33;;;0.60;;
9156;SDS011;4613;48.392;9.998;2023-03-14T17:55:41;1.10;;;0.70;;
9156;SDS011;4613;48.392;9.998;2023-03-14T17:58:31;0.57;;;0.57;;
9156;SDS011;4613;48.392;9.998;2023-03-14T18:01:24;1.90;;;1.03;;
9156;SDS011;4613;48.392;9.998;2023-03-14T18:04:13;1.33;;;1.23;;
9156;SDS011;4613;48.392;9.998;2023-03-14T18:07:04;0.70;;;0.70;;
9156;SDS011;4613;48.392;9.998;2023-03-14T18:09:54;0.63;;;0.63;;
9156;SDS011;4613;48.392;9.998;2023-03-14T18:12:43;0.93;;;0.93;;
9156;SDS011;4613;48.392;9.998;2023-03-14T18:15:33;1.27;;;0.77;;
9156;SDS011;4613;48.392;9.998;2023-03-14T18:18:22;0.90;;;0.77;;
9156;SDS011;4613;48.392;9.998;2023-03-14T18:21:12;0.70;;;0.70;;
9156;SDS011;4613;48.392;9.998;2023-03-14T18:24:01;0.73;;;0.73;;
9156;SDS011;4613;48.392;9.998;2023-03-14T18:26:52;1.50;;;0.73;;
9156;SDS011;4613;48.392;9.998;2023-03-14T18:29:41;1.80;;;0.80;;
9156;SDS011;4613;48.392;9.998;2023-03-14T18:32:31;1.20;;;1.00;;
9156;SDS011;4613;48.392;9.998;2023-03-14T18:35:20;2.40;;;0.97;;
9156;SDS011;4613;48.392;9.998;2023-03-14T18:38:10;0.77;;;0.70;;
9156;SDS011;4613;48.392;9.998;2023-03-14T18:41:05;0.90;;;0.90;;
9156;SDS011;4613;48.392;9.998;2023-03-14T18:43:55;0.83;;;0.80;;
9156;SDS011;4613;48.392;9.998;2023-03-14T18:46:44;1.80;;;1.17;;
9156;SDS011;4613;48.392;9.998;2023-03-14T18:49:34;1.10;;;0.60;;
9156;SDS011;4613;48.392;9.998;2023-03-14T18:52:23;0.90;;;0.70;;
9156;SDS011;4613;48.392;9.998;2023-03-14T18:55:12;0.90;;;0.90;;
9156;SDS011;4613;48.392;9.998;2023-03-14T18:58:02;0.70;;;0.70;;
9156;SDS011;4613;48.392;9.998;2023-03-14T19:00:51;0.90;;;0.90;;